Time;durP1;ratioP1;P1;durP2;ratioP2;P2;SDS_P1;SDS_P2;PMS_P1;PMS_P2;Temp;Humidity;BMP_temperature;BMP_pressure;BME280_temperature;BME280_humidity;BME280_pressure;Samples;Min_cycle;Max_cycle;Signal;HPM_P1;HPM_P2
2021/06/14 00:00:12;0.00;0.00;0.62;0.00;0.00;0.62;;;;;23.80;55.90;;;;;;2261253;61;2338;-65
2021/06/14 00:02:39;0.00;0.00;0.62;0.00;0.00;0.62;;;;;23.80;55.90;;;;;;2260398;61;3747;-65
2021/06/14 00:05:05;0.00;0.00;0.62;0.00;0.00;0.62;;;;;23.80;55.90;;;;;;2260655;61;2445;-65
2021/06/14 00:07:30;0.00;0.00;0.62;0.00;0.00;0.62;;;;;23.80;55.90;;;;;;2259048;61;3547;-65
2021/06/14 00:09:56;0.00;0.00;0.62;0.00;0.00;0.62;;;;;23.80;55.90;;;;;;2262014;61;3563;-65
2021/06/14 00:12:22;0.00;0.00;0.62;0.00;0.00;0.62;;;;;23.80;55.90;;;;;;2256807;61;3282;-65
2021/06/14 00:14:49;0.00;0.00;0.62;0.00;0.00;0.62;;;;;23.80;55.90;;;;;;2260996;61;2454;-65
2021/06/14 00:17:15;0.00;0.00;0.62;0.00;0.00;0.62;;;;;23.80;56.00;;;;;;2260656;61;2428;-65
2021/06/14 00:19:40;0.00;0.00;0.62;0.00;0.00;0.62;;;;;23.80;56.00;;;;;;2261750;61;3956;-65
2021/06/14 00:22:06;0.00;0.00;0.62;0.00;0.00;0.62;;;;;23.80;56.00;;;;;;2261113;61;2453;-65
2021/06/14 00:24:32;0.00;0.00;0.62;0.00;0.00;0.62;;;;;23.80;55.90;;;;;;2260427;61;3028;-65
2021/06/14 00:26:57;0.00;0.00;0.62;0.00;0.00;0.62;;;;;23.80;56.00;;;;;;2260705;61;2439;-65
2021/06/14 00:29:23;0.00;0.00;0.62;0.00;0.00;0.62;;;;;23.80;56.00;;;;;;2261176;61;3439;-66
2021/06/14 00:31:49;0.00;0.00;0.62;0.00;0.00;0.62;;;;;23.80;56.00;;;;;;2261069;61;2142;-66
2021/06/14 00:34:14;0.00;0.00;0.62;0.00;0.00;0.62;;;;;23.80;56.00;;;;;;2261155;61;4107;-66
2021/06/14 00:36:40;0.00;0.00;0.62;0.00;0.00;0.62;;;;;23.80;56.20;;;;;;2261104;61;3575;-66
2021/06/14 00:39:06;0.00;0.00;0.62;0.00;0.00;0.62;;;;;23.80;56.00;;;;;;2260794;61;2416;-66
2021/06/14 00:41:31;0.00;0.00;0.62;0.00;0.00;0.62;;;;;23.80;56.20;;;;;;2260514;61;3506;-66
2021/06/14 00:43:57;0.00;0.00;0.62;0.00;0.00;0.62;;;;;23.80;56.20;;;;;;2261392;61;2521;-66
2021/06/14 00:46:22;0.00;0.00;0.62;0.00;0.00;0.62;;;;;23.80;56.20;;;;;;2260081;61;3481;-66
2021/06/14 00:48:48;0.00;0.00;0.62;0.00;0.00;0.62;;;;;23.80;56.20;;;;;;2261373;61;4116;-66
2021/06/14 00:51:14;0.00;0.00;0.62;0.00;0.00;0.62;;;;;23.80;56.20;;;;;;2261400;61;3748;-66
2021/06/14 00:53:41;0.00;0.00;0.62;0.00;0.00;0.62;;;;;23.80;56.20;;;;;;2261077;61;3538;-66
2021/06/14 00:56:09;0.00;0.00;0.62;0.00;0.00;0.62;;;;;23.80;56.20;;;;;;2256459;61;2425;-66
2021/06/14 00:58:35;0.00;0.00;0.62;0.00;0.00;0.62;;;;;23.80;56.20;;;;;;2260101;61;3508;-66
2021/06/14 01:01:01;0.00;0.00;0.62;0.00;0.00;0.62;;;;;23.80;56.20;;;;;;2256784;61;2387;-66
2021/06/14 01:03:27;0.00;0.00;0.62;0.00;0.00;0.62;;;;;23.80;56.30;;;;;;2256877;61;3408;-66
2021/06/14 01:05:58;0.00;0.00;0.62;0.00;0.00;0.62;;;;;23.80;56.20;;;;;;2252824;61;3267;-66
2021/06/14 01:08:24;0.00;0.00;0.62;0.00;0.00;0.62;;;;;23.80;56.20;;;;;;2258439;61;2544;-66
2021/06/14 01:10:50;0.00;0.00;0.62;0.00;0.00;0.62;;;;;23.80;56.30;;;;;;2254229;61;3469;-66
2021/06/14 01:13:34;0.00;0.00;0.62;0.00;0.00;0.62;;;;;23.80;56.30;;;;;;2259481;61;2444;-66
2021/06/14 01:16:17;0.00;0.00;0.62;0.00;0.00;0.62;;;;;23.80;56.30;;;;;;2259284;61;2348;-66
2021/06/14 01:19:01;0.00;0.00;0.62;0.00;0.00;0.62;;;;;23.70;56.30;;;;;;2258292;61;3866;-66
2021/06/14 01:21:27;0.00;0.00;0.62;0.00;0.00;0.62;;;;;23.70;56.30;;;;;;2258535;61;3264;-66
2021/06/14 01:24:08;0.00;0.00;0.62;0.00;0.00;0.62;;;;;23.70;56.30;;;;;;2257922;61;3494;-66
2021/06/14 01:26:59;0.00;0.00;0.62;0.00;0.00;0.62;;;;;23.70;56.40;;;;;;2259475;61;3411;-66
2021/06/14 01:29:24;0.00;0.00;0.62;0.00;0.00;0.62;;;;;23.70;56.40;;;;;;2254608;61;3652;-66
2021/06/14 01:31:50;0.00;0.00;0.62;0.00;0.00;0.62;;;;;23.70;56.40;;;;;;2259877;61;2384;-66
2021/06/14 01:34:16;0.00;0.00;0.62;0.00;0.00;0.62;;;;;23.70;56.40;;;;;;2258662;61;4563;-66
2021/06/14 01:36:41;0.00;0.00;0.62;0.00;0.00;0.62;;;;;23.70;56.40;;;;;;2259725;61;2428;-66
2021/06/14 01:39:07;0.00;0.00;0.62;0.00;0.00;0.62;;;;;23.70;56.40;;;;;;2256433;61;2944;-66
2021/06/14 01:41:33;0.00;0.00;0.62;0.00;0.00;0.62;;;;;23.70;56.40;;;;;;2254634;61;3638;-67
2021/06/14 01:43:59;0.00;0.00;0.62;0.00;0.00;0.62;;;;;23.70;56.40;;;;;;2255313;61;2736;-66
2021/06/14 01:46:27;0.00;0.00;0.62;0.00;0.00;0.62;;;;;23.70;56.40;;;;;;2252691;61;3449;-66
2021/06/14 01:48:53;0.00;0.00;0.62;0.00;0.00;0.62;;;;;23.70;56.50;;;;;;2254163;61;3737;-66
2021/06/14 01:51:23;0.00;0.00;0.62;0.00;0.00;0.62;;;;;23.70;56.40;;;;;;2253399;61;3701;-66
2021/06/14 01:54:05;0.00;0.00;0.62;0.00;0.00;0.62;;;;;23.70;56.50;;;;;;2259104;61;2794;-66
2021/06/14 01:56:37;0.00;0.00;0.62;0.00;0.00;0.62;;;;;23.70;56.50;;;;;;2256632;61;3532;-66
2021/06/14 01:59:04;0.00;0.00;0.62;0.00;0.00;0.62;;;;;23.70;56.50;;;;;;2254968;61;3454;-66
2021/06/14 02:01:30;0.00;0.00;0.62;0.00;0.00;0.62;;;;;23.70;56.50;;;;;;2255622;61;2435;-66
2021/06/14 02:03:57;0.00;0.00;0.62;0.00;0.00;0.62;;;;;23.70;56.50;;;;;;2256666;61;2313;-66
2021/06/14 02:06:25;0.00;0.00;0.62;0.00;0.00;0.62;;;;;23.70;56.50;;;;;;2253923;61;3851;-66
2021/06/14 02:08:51;0.00;0.00;0.62;0.00;0.00;0.62;;;;;23.70;56.70;;;;;;2256780;61;3481;-66
2021/06/14 02:11:17;0.00;0.00;0.62;0.00;0.00;0.62;;;;;23.70;56.50;;;;;;2255172;61;2408;-66
2021/06/14 02:13:43;0.00;0.00;0.62;0.00;0.00;0.62;;;;;23.70;56.50;;;;;;2256706;61;3391;-66
2021/06/14 02:16:09;0.00;0.00;0.62;0.00;0.00;0.62;;;;;23.70;56.70;;;;;;2252180;61;2346;-66
2021/06/14 02:18:34;0.00;0.00;0.62;0.00;0.00;0.62;;;;;23.70;56.70;;;;;;2249992;61;3974;-66
2021/06/14 02:21:00;0.00;0.00;0.62;0.00;0.00;0.62;;;;;23.70;56.70;;;;;;2258252;61;3802;-66
2021/06/14 02:23:25;0.00;0.00;0.62;0.00;0.00;0.62;;;;;23.70;56.70;;;;;;2255268;61;2554;-66
2021/06/14 02:25:51;0.00;0.00;0.62;0.00;0.00;0.62;;;;;23.70;56.70;;;;;;2257334;61;3414;-66
2021/06/14 02:28:17;0.00;0.00;0.62;0.00;0.00;0.62;;;;;23.70;56.70;;;;;;2260108;61;2509;-66
2021/06/14 02:30:42;0.00;0.00;0.62;0.00;0.00;0.62;;;;;23.70;56.70;;;;;;2256937;61;3404;-66
2021/06/14 02:33:08;0.00;0.00;0.62;0.00;0.00;0.62;;;;;23.60;56.70;;;;;;2259613;61;3925;-66
2021/06/14 02:35:33;0.00;0.00;0.62;0.00;0.00;0.62;;;;;23.70;56.70;;;;;;2257471;61;2930;-66
2021/06/14 02:38:01;0.00;0.00;0.62;0.00;0.00;0.62;;;;;23.70;56.70;;;;;;2259301;61;3821;-66
2021/06/14 02:40:29;0.00;0.00;0.62;0.00;0.00;0.62;;;;;23.60;56.70;;;;;;2256514;61;2415;-66
2021/06/14 02:42:55;0.00;0.00;0.62;0.00;0.00;0.62;;;;;23.60;56.80;;;;;;2256971;61;3485;-67
2021/06/14 02:45:24;0.00;0.00;0.62;0.00;0.00;0.62;;;;;23.60;56.80;;;;;;2258400;61;2559;-66
2021/06/14 02:47:49;0.00;0.00;0.62;0.00;0.00;0.62;;;;;23.60;56.80;;;;;;2258303;61;3288;-66
2021/06/14 02:50:16;0.00;0.00;0.62;0.00;0.00;0.62;;;;;23.60;56.80;;;;;;2256876;61;3983;-66
2021/06/14 02:52:41;0.00;0.00;0.62;0.00;0.00;0.62;;;;;23.60;56.80;;;;;;2257652;61;3904;-66
2021/06/14 02:55:13;0.00;0.00;0.62;0.00;0.00;0.62;;;;;23.60;56.80;;;;;;2257927;61;2417;-66
2021/06/14 02:57:39;0.00;0.00;0.62;0.00;0.00;0.62;;;;;23.60;56.80;;;;;;2258409;61;3241;-67
2021/06/14 03:00:07;0.00;0.00;0.62;0.00;0.00;0.62;;;;;23.60;56.80;;;;;;2258154;61;3586;-66
2021/06/14 03:02:33;0.00;0.00;0.62;0.00;0.00;0.62;;;;;23.60;56.90;;;;;;2259159;61;2332;-66
2021/06/14 03:04:58;0.00;0.00;0.62;0.00;0.00;0.62;;;;;23.60;56.90;;;;;;2254409;61;3445;-66
2021/06/14 03:07:24;0.00;0.00;0.62;0.00;0.00;0.62;;;;;23.60;56.90;;;;;;2259373;61;3619;-66
2021/06/14 03:09:50;0.00;0.00;0.62;0.00;0.00;0.62;;;;;23.60;56.80;;;;;;2252329;61;3542;-66
2021/06/14 03:12:16;0.00;0.00;0.62;0.00;0.00;0.62;;;;;23.60;56.90;;;;;;2254555;61;2630;-66
2021/06/14 03:14:42;0.00;0.00;0.62;0.00;0.00;0.62;;;;;23.60;56.90;;;;;;2254453;61;2347;-66
2021/06/14 03:17:07;0.00;0.00;0.62;0.00;0.00;0.62;;;;;23.60;56.90;;;;;;2259687;61;3276;-66
2021/06/14 03:19:33;0.00;0.00;0.62;0.00;0.00;0.62;;;;;23.60;56.90;;;;;;2258366;61;3794;-66
2021/06/14 03:21:59;0.00;0.00;0.62;0.00;0.00;0.62;;;;;23.60;56.90;;;;;;2255205;61;3644;-66
2021/06/14 03:24:24;0.00;0.00;0.62;0.00;0.00;0.62;;;;;23.60;57.00;;;;;;2259392;61;3573;-66
2021/06/14 03:26:50;0.00;0.00;0.62;0.00;0.00;0.62;;;;;23.60;57.00;;;;;;2258237;61;2563;-66
2021/06/14 03:29:21;0.00;0.00;0.62;0.00;0.00;0.62;;;;;23.60;57.00;;;;;;2258646;61;3467;-66
2021/06/14 03:31:47;0.00;0.00;0.62;0.00;0.00;0.62;;;;;23.60;57.00;;;;;;2258796;61;3267;-66
2021/06/14 03:34:13;0.00;0.00;0.62;0.00;0.00;0.62;;;;;23.50;57.00;;;;;;2258872;61;4035;-66
2021/06/14 03:36:40;0.00;0.00;0.62;0.00;0.00;0.62;;;;;23.50;56.90;;;;;;2256243;61;2454;-66
2021/06/14 03:39:06;0.00;0.00;0.62;0.00;0.00;0.62;;;;;23.60;56.90;;;;;;2254828;61;3490;-65
2021/06/14 03:41:31;0.00;0.00;0.62;0.00;0.00;0.62;;;;;23.50;57.00;;;;;;2255097;61;3582;-66
2021/06/14 03:43:57;0.00;0.00;0.62;0.00;0.00;0.62;;;;;23.50;56.90;;;;;;2258261;61;3447;-66
2021/06/14 03:46:22;0.00;0.00;0.62;0.00;0.00;0.62;;;;;23.50;57.00;;;;;;2258900;61;2597;-66
2021/06/14 03:48:48;0.00;0.00;0.62;0.00;0.00;0.62;;;;;23.50;57.00;;;;;;2259657;61;2893;-66
2021/06/14 03:51:14;0.00;0.00;0.62;0.00;0.00;0.62;;;;;23.50;56.90;;;;;;2258507;61;4022;-66
2021/06/14 03:53:39;0.00;0.00;0.62;0.00;0.00;0.62;;;;;23.50;56.90;;;;;;2258575;61;2378;-66
2021/06/14 03:56:09;0.00;0.00;0.62;0.00;0.00;0.62;;;;;23.50;56.90;;;;;;2255228;61;3486;-66
2021/06/14 03:58:35;78180.00;0.26;135.89;0.00;0.00;0.62;;;;;23.50;56.90;;;;;;2257971;61;3566;-67
2021/06/14 04:01:00;83579.00;0.28;145.22;13519.00;0.05;24.05;;;;;23.00;54.70;;;;;;2259051;61;3290;-67
2021/06/14 04:03:28;0.00;0.00;0.62;0.00;0.00;0.62;;;;;21.90;55.90;;;;;;2258556;61;2334;-66
2021/06/14 04:05:55;0.00;0.00;0.62;0.00;0.00;0.62;;;;;21.00;57.50;;;;;;2256841;61;3182;-66
2021/06/14 04:08:21;0.00;0.00;0.62;0.00;0.00;0.62;;;;;20.60;58.50;;;;;;2259219;61;3496;-67
2021/06/14 04:10:46;173405.00;0.58;300.13;33349.00;0.11;58.38;;;;;20.10;59.70;;;;;;2259251;61;2263;-67
2021/06/14 04:13:12;0.00;0.00;0.62;0.00;0.00;0.62;;;;;20.10;60.00;;;;;;2257300;61;3663;-67
2021/06/14 04:15:38;153456.00;0.51;265.76;0.00;0.00;0.62;;;;;19.80;60.70;;;;;;2259172;61;3463;-64
2021/06/14 04:18:04;110824.00;0.37;192.25;38200.00;0.13;66.77;;;;;19.80;60.60;;;;;;2254764;61;3377;-61
2021/06/14 04:20:29;0.00;0.00;0.62;0.00;0.00;0.62;;;;;19.70;61.00;;;;;;2253943;61;3683;-64
2021/06/14 04:22:55;0.00;0.00;0.62;0.00;0.00;0.62;;;;;19.60;61.50;;;;;;2257846;61;2559;-64
2021/06/14 04:25:21;39057.00;0.13;68.26;0.00;0.00;0.62;;;;;19.40;61.90;;;;;;2257913;61;3448;-64
2021/06/14 04:27:46;0.00;0.00;0.62;0.00;0.00;0.62;;;;;19.20;62.80;;;;;;2258477;61;2366;-64
2021/06/14 04:30:13;0.00;0.00;0.62;0.00;0.00;0.62;;;;;19.30;62.50;;;;;;2257826;61;3436;-62
2021/06/14 04:32:38;138390.00;0.46;239.80;0.00;0.00;0.62;;;;;19.20;62.80;;;;;;2255521;61;3941;-64
2021/06/14 04:35:05;0.00;0.00;0.62;0.00;0.00;0.62;;;;;19.20;62.50;;;;;;2259468;61;3339;-64
2021/06/14 04:37:31;269895.00;0.90;466.16;0.00;0.00;0.62;;;;;19.30;62.40;;;;;;2259669;61;2118;-63
2021/06/14 04:39:57;0.00;0.00;0.62;0.00;0.00;0.62;;;;;19.40;62.00;;;;;;2258359;61;2373;-64
2021/06/14 04:42:22;0.00;0.00;0.62;0.00;0.00;0.62;;;;;19.30;62.00;;;;;;2258610;61;3453;-64
2021/06/14 04:44:49;0.00;0.00;0.62;0.00;0.00;0.62;;;;;19.20;62.70;;;;;;2259232;61;2041;-64
2021/06/14 04:47:14;62847.00;0.21;109.40;0.00;0.00;0.62;;;;;19.20;62.50;;;;;;2259636;61;3362;-64
2021/06/14 04:49:40;141250.00;0.47;244.73;52729.00;0.18;91.91;;;;;19.40;62.50;;;;;;2257679;61;3980;-64
2021/06/14 04:52:06;96244.00;0.32;167.09;28232.00;0.09;49.52;;;;;19.30;63.30;;;;;;2258246;61;3529;-66
2021/06/14 04:54:32;120109.00;0.40;208.27;0.00;0.00;0.62;;;;;19.50;63.70;;;;;;2259430;61;2372;-65
2021/06/14 04:56:57;0.00;0.00;0.62;0.00;0.00;0.62;;;;;19.80;66.00;;;;;;2259442;61;3519;-68
2021/06/14 04:59:24;0.00;0.00;0.62;0.00;0.00;0.62;;;;;20.10;65.80;;;;;;2257789;61;2480;-65
2021/06/14 05:01:50;0.00;0.00;0.62;0.00;0.00;0.62;;;;;20.30;64.30;;;;;;2258129;61;2389;-65
2021/06/14 05:04:15;71675.00;0.24;124.65;0.00;0.00;0.62;;;;;20.50;63.20;;;;;;2257625;61;3317;-65
2021/06/14 05:06:41;0.00;0.00;0.62;0.00;0.00;0.62;;;;;20.60;62.70;;;;;;2258368;61;3393;-65
2021/06/14 05:09:06;0.00;0.00;0.62;0.00;0.00;0.62;;;;;20.70;62.00;;;;;;2259115;61;3472;-64
2021/06/14 05:11:32;0.00;0.00;0.62;0.00;0.00;0.62;;;;;20.80;61.60;;;;;;2257138;61;2649;-66
2021/06/14 05:13:58;0.00;0.00;0.62;0.00;0.00;0.62;;;;;20.80;61.10;;;;;;2257291;61;2350;-63
2021/06/14 05:16:23;0.00;0.00;0.62;0.00;0.00;0.62;;;;;20.90;60.70;;;;;;2258341;61;3395;-63
2021/06/14 05:18:49;0.00;0.00;0.62;0.00;0.00;0.62;;;;;20.90;60.50;;;;;;2259027;61;2204;-65
2021/06/14 05:21:14;0.00;0.00;0.62;0.00;0.00;0.62;;;;;21.00;60.20;;;;;;2257427;61;4106;-64
2021/06/14 05:23:40;0.00;0.00;0.62;0.00;0.00;0.62;;;;;21.10;60.00;;;;;;2257571;61;2356;-64
2021/06/14 05:26:06;85944.00;0.29;149.30;0.00;0.00;0.62;;;;;21.10;59.60;;;;;;2257775;61;3306;-66
2021/06/14 05:28:31;0.00;0.00;0.62;0.00;0.00;0.62;;;;;21.20;59.50;;;;;;2256494;61;2619;-70
2021/06/14 05:30:57;114027.00;0.38;197.78;0.00;0.00;0.62;;;;;21.20;59.20;;;;;;2258144;61;3292;-71
2021/06/14 05:33:23;373290.00;1.24;643.89;181481.00;0.60;314.04;;;;;21.20;59.10;;;;;;2257509;61;3557;-69
2021/06/14 05:35:48;0.00;0.00;0.62;0.00;0.00;0.62;;;;;21.30;58.90;;;;;;2259596;61;2314;-74
2021/06/14 05:38:14;0.00;0.00;0.62;0.00;0.00;0.62;;;;;21.30;58.90;;;;;;2258096;61;3591;-73
2021/06/14 05:40:45;371462.00;1.24;640.75;287283.00;0.96;496.06;;;;;21.30;58.90;;;;;;1431184;61;10001639;-71
2021/06/14 05:43:10;0.00;0.00;0.62;0.00;0.00;0.62;;;;;21.40;58.60;;;;;;1041556;61;10002070;-66
2021/06/14 05:45:36;33541.00;0.11;58.71;0.00;0.00;0.62;;;;;21.40;58.50;;;;;;2244217;61;2647;-69
2021/06/14 05:48:02;2146.00;0.01;4.34;0.00;0.00;0.62;;;;;21.40;58.50;;;;;;2247350;61;2701;-69
2021/06/14 05:50:27;0.00;0.00;0.62;0.00;0.00;0.62;;;;;21.40;58.40;;;;;;2246679;61;4349;-68
2021/06/14 05:52:53;0.00;0.00;0.62;0.00;0.00;0.62;;;;;21.40;58.40;;;;;;2246587;61;2529;-69
2021/06/14 05:55:19;0.00;0.00;0.62;0.00;0.00;0.62;;;;;21.40;58.50;;;;;;2246207;61;3497;-66
2021/06/14 05:57:44;0.00;0.00;0.62;0.00;0.00;0.62;;;;;21.50;58.50;;;;;;2247838;61;3386;-66
2021/06/14 06:00:11;0.00;0.00;0.62;0.00;0.00;0.62;;;;;21.50;58.30;;;;;;2246117;61;3392;-66
2021/06/14 06:02:36;0.00;0.00;0.62;0.00;0.00;0.62;;;;;21.60;58.10;;;;;;2249423;61;2377;-66
2021/06/14 06:05:03;0.00;0.00;0.62;0.00;0.00;0.62;;;;;21.60;58.10;;;;;;2245853;61;2403;-66
2021/06/14 06:07:28;0.00;0.00;0.62;0.00;0.00;0.62;;;;;21.70;57.90;;;;;;2245283;61;3438;-66
2021/06/14 06:09:54;273803.00;0.91;472.88;0.00;0.00;0.62;;;;;21.70;57.80;;;;;;2246134;61;2433;-66
2021/06/14 06:12:20;0.00;0.00;0.62;0.00;0.00;0.62;;;;;21.70;57.50;;;;;;2246337;61;2396;-66
2021/06/14 06:14:46;0.00;0.00;0.62;0.00;0.00;0.62;;;;;21.70;58.00;;;;;;2246610;61;2344;-66
2021/06/14 06:17:12;0.00;0.00;0.62;0.00;0.00;0.62;;;;;21.70;58.00;;;;;;2247052;61;3316;-66
2021/06/14 06:19:37;0.00;0.00;0.62;0.00;0.00;0.62;;;;;21.80;58.00;;;;;;2248060;61;2468;-65
2021/06/14 06:22:03;0.00;0.00;0.62;0.00;0.00;0.62;;;;;21.80;58.30;;;;;;2242244;61;3550;-69
2021/06/14 06:24:29;145929.00;0.49;252.79;9347.00;0.03;16.82;;;;;21.70;57.10;;;;;;2248515;61;4134;-67
2021/06/14 06:26:55;169168.00;0.56;292.83;28876.00;0.10;50.64;;;;;20.80;60.70;;;;;;2245182;61;2974;-72
2021/06/14 06:29:20;32332.00;0.11;56.62;0.00;0.00;0.62;;;;;20.30;61.10;;;;;;2248242;61;4091;-72
2021/06/14 06:31:46;188847.00;0.63;326.72;0.00;0.00;0.62;;;;;20.30;61.20;;;;;;2248467;61;2379;-66
2021/06/14 06:34:12;409366.00;1.36;705.91;0.00;0.00;0.62;;;;;20.10;61.90;;;;;;2246274;61;3472;-69
2021/06/14 06:36:37;0.00;0.00;0.62;0.00;0.00;0.62;;;;;20.40;61.80;;;;;;2246652;61;2430;-69
2021/06/14 06:39:03;0.00;0.00;0.62;0.00;0.00;0.62;;;;;20.80;60.20;;;;;;2247927;61;2284;-68
2021/06/14 06:41:29;80456.00;0.27;139.82;0.00;0.00;0.62;;;;;21.00;59.60;;;;;;2247100;61;3419;-67
2021/06/14 06:43:54;192234.00;0.64;332.55;0.00;0.00;0.62;;;;;21.10;59.50;;;;;;2248227;61;2402;-66
2021/06/14 06:46:20;84168.00;0.28;146.24;0.00;0.00;0.62;;;;;21.20;58.70;;;;;;2247332;61;3459;-69
2021/06/14 06:48:45;0.00;0.00;0.62;0.00;0.00;0.62;;;;;21.40;58.40;;;;;;2246194;61;3398;-66
2021/06/14 06:51:11;64675.00;0.22;112.56;0.00;0.00;0.62;;;;;21.50;58.30;;;;;;2246189;61;3997;-66
2021/06/14 06:53:37;0.00;0.00;0.62;0.00;0.00;0.62;;;;;21.50;58.00;;;;;;2243813;61;2425;-70
2021/06/14 06:56:03;25732.00;0.09;45.19;0.00;0.00;0.62;;;;;21.50;57.80;;;;;;2244425;61;4330;-76
2021/06/14 06:58:28;0.00;0.00;0.62;0.00;0.00;0.62;;;;;21.60;57.30;;;;;;2246761;61;2453;-71
2021/06/14 07:00:54;0.00;0.00;0.62;0.00;0.00;0.62;;;;;21.70;57.00;;;;;;2246898;61;2760;-69
2021/06/14 07:03:20;0.00;0.00;0.62;0.00;0.00;0.62;;;;;21.70;57.00;;;;;;2246600;61;4496;-73
2021/06/14 07:05:49;0.00;0.00;0.62;0.00;0.00;0.62;;;;;21.80;57.60;;;;;;2248086;61;3718;-70
2021/06/14 07:08:14;15345.00;0.05;27.21;0.00;0.00;0.62;;;;;21.80;57.00;;;;;;2248559;61;3437;-77
2021/06/14 07:10:40;0.00;0.00;0.62;0.00;0.00;0.62;;;;;21.80;56.40;;;;;;2247191;61;2453;-69
2021/06/14 07:13:06;0.00;0.00;0.62;0.00;0.00;0.62;;;;;21.90;57.30;;;;;;2250318;61;4060;-68
2021/06/14 07:15:33;0.00;0.00;0.62;0.00;0.00;0.62;;;;;22.00;57.00;;;;;;2246565;61;3574;-69
2021/06/14 07:17:59;0.00;0.00;0.62;0.00;0.00;0.62;;;;;22.00;56.80;;;;;;2240150;61;2407;-65
2021/06/14 07:20:25;0.00;0.00;0.62;0.00;0.00;0.62;;;;;22.10;56.80;;;;;;2243381;61;2486;-67
2021/06/14 07:22:51;145684.00;0.49;252.37;0.00;0.00;0.62;;;;;22.00;56.70;;;;;;2247801;61;3893;-71
2021/06/14 07:25:16;272694.00;0.91;470.98;139671.00;0.47;242.00;;;;;21.80;57.50;;;;;;2247101;61;3444;-67
2021/06/14 07:27:42;275325.00;0.92;475.50;90984.00;0.30;158.01;;;;;21.90;57.00;;;;;;2246358;61;2587;-70
2021/06/14 07:30:09;95128.00;0.32;165.16;0.00;0.00;0.62;;;;;22.00;57.30;;;;;;2249241;61;2483;-68
2021/06/14 07:32:35;0.00;0.00;0.62;0.00;0.00;0.62;;;;;22.00;56.90;;;;;;2246741;61;3708;-63
2021/06/14 07:35:00;56613.00;0.19;98.62;0.00;0.00;0.62;;;;;22.00;56.90;;;;;;2249177;61;2567;-65
2021/06/14 07:37:26;63580.00;0.21;110.67;0.00;0.00;0.62;;;;;22.10;56.20;;;;;;2249629;61;3511;-69
2021/06/14 07:39:52;115428.00;0.38;200.20;0.00;0.00;0.62;;;;;22.10;56.30;;;;;;2248937;61;3115;-66
2021/06/14 07:42:18;0.00;0.00;0.62;0.00;0.00;0.62;;;;;22.10;56.70;;;;;;2248221;61;3414;-65
2021/06/14 07:44:44;0.00;0.00;0.62;0.00;0.00;0.62;;;;;22.20;56.70;;;;;;2250893;61;2307;-66
2021/06/14 07:47:10;24342.00;0.08;42.79;0.00;0.00;0.62;;;;;22.20;56.40;;;;;;2250604;61;3980;-67
2021/06/14 07:49:36;0.00;0.00;0.62;0.00;0.00;0.62;;;;;22.30;56.70;;;;;;2251832;61;2856;-67
2021/06/14 07:52:03;0.00;0.00;0.62;0.00;0.00;0.62;;;;;22.30;56.50;;;;;;2247203;61;3882;-66
2021/06/14 07:54:28;0.00;0.00;0.62;0.00;0.00;0.62;;;;;22.40;56.50;;;;;;2247742;61;3467;-66
2021/06/14 07:56:54;0.00;0.00;0.62;0.00;0.00;0.62;;;;;22.40;56.40;;;;;;2246456;61;4609;-67
2021/06/14 07:59:20;107526.00;0.36;186.56;0.00;0.00;0.62;;;;;22.40;56.00;;;;;;2245434;61;3514;-70
2021/06/14 08:01:45;0.00;0.00;0.62;0.00;0.00;0.62;;;;;22.50;56.00;;;;;;2247087;61;2396;-68
2021/06/14 08:04:11;143003.00;0.48;247.75;0.00;0.00;0.62;;;;;22.50;56.00;;;;;;2248181;61;2462;-69
2021/06/14 08:06:36;42690.00;0.14;74.54;0.00;0.00;0.62;;;;;22.50;56.00;;;;;;2247037;61;4385;-66
2021/06/14 08:09:06;0.00;0.00;0.62;0.00;0.00;0.62;;;;;22.50;56.30;;;;;;2248252;61;2499;-65
2021/06/14 08:11:32;0.00;0.00;0.62;0.00;0.00;0.62;;;;;22.60;56.00;;;;;;2248842;61;3006;-69
2021/06/14 08:13:59;147105.00;0.49;254.82;0.00;0.00;0.62;;;;;22.60;56.00;;;;;;2244833;61;3204;-68
2021/06/14 08:16:25;103619.00;0.35;179.82;0.00;0.00;0.62;;;;;22.70;56.40;;;;;;2247022;61;3501;-69
2021/06/14 08:19:03;89686.00;0.30;155.77;0.00;0.00;0.62;;;;;22.70;56.00;;;;;;2250488;61;2334;-67
2021/06/14 08:21:43;92122.00;0.31;159.97;0.00;0.00;0.62;;;;;22.70;55.90;;;;;;2247093;61;3788;-67
2021/06/14 08:26:54;0.00;0.00;0.62;0.00;0.00;0.62;;;;;22.80;56.00;;;;;;2254911;61;2551;-72
2021/06/14 08:29:19;0.00;0.00;0.62;0.00;0.00;0.62;;;;;22.80;56.00;;;;;;2248924;61;4310;-76
2021/06/14 08:31:45;0.00;0.00;0.62;0.00;0.00;0.62;;;;;22.90;55.90;;;;;;2249634;61;3077;-75
2021/06/14 08:34:11;0.00;0.00;0.62;0.00;0.00;0.62;;;;;22.90;55.90;;;;;;2249531;61;3362;-72
2021/06/14 08:36:38;50255.00;0.17;87.63;0.00;0.00;0.62;;;;;23.00;56.00;;;;;;2249346;61;3113;-70
2021/06/14 08:39:04;0.00;0.00;0.62;0.00;0.00;0.62;;;;;23.00;56.30;;;;;;2246482;61;2134;-70
2021/06/14 08:41:30;0.00;0.00;0.62;0.00;0.00;0.62;;;;;23.10;56.30;;;;;;2248374;61;3557;-72
2021/06/14 08:43:57;0.00;0.00;0.62;0.00;0.00;0.62;;;;;23.10;56.30;;;;;;2247998;61;2411;-71
2021/06/14 08:46:23;90477.00;0.30;157.13;0.00;0.00;0.62;;;;;23.20;56.40;;;;;;2250153;61;2330;-70
2021/06/14 08:48:50;0.00;0.00;0.62;0.00;0.00;0.62;;;;;23.20;56.20;;;;;;2244832;61;4121;-74
2021/06/14 08:51:15;0.00;0.00;0.62;0.00;0.00;0.62;;;;;23.20;56.00;;;;;;2244373;61;3534;-73
2021/06/14 08:53:41;0.00;0.00;0.62;0.00;0.00;0.62;;;;;23.20;56.20;;;;;;2247986;61;2960;-71
2021/06/14 08:56:06;0.00;0.00;0.62;0.00;0.00;0.62;;;;;23.20;56.00;;;;;;2246727;61;3466;-70
2021/06/14 08:58:32;0.00;0.00;0.62;0.00;0.00;0.62;;;;;23.30;55.70;;;;;;2249612;61;2403;-68
2021/06/14 09:00:59;0.00;0.00;0.62;0.00;0.00;0.62;;;;;23.30;55.80;;;;;;2243377;61;3571;-66
2021/06/14 09:03:25;0.00;0.00;0.62;0.00;0.00;0.62;;;;;23.30;55.90;;;;;;2249674;61;2462;-66
2021/06/14 09:05:51;0.00;0.00;0.62;0.00;0.00;0.62;;;;;23.40;55.80;;;;;;2247328;61;3884;-68
2021/06/14 09:08:20;0.00;0.00;0.62;0.00;0.00;0.62;;;;;23.40;55.50;;;;;;2246573;61;3446;-69
2021/06/14 09:10:46;0.00;0.00;0.62;0.00;0.00;0.62;;;;;23.50;55.40;;;;;;2247029;61;2198;-69
2021/06/14 09:13:20;0.00;0.00;0.62;0.00;0.00;0.62;;;;;23.60;55.40;;;;;;2246470;61;3307;-68
2021/06/14 09:15:47;0.00;0.00;0.62;0.00;0.00;0.62;;;;;23.70;55.40;;;;;;2245108;61;2280;-65
2021/06/14 09:18:26;0.00;0.00;0.62;0.00;0.00;0.62;;;;;24.10;54.70;;;;;;2246702;61;4094;-64
2021/06/14 09:21:12;0.00;0.00;0.62;0.00;0.00;0.62;;;;;24.60;52.60;;;;;;2245990;61;3399;-66
2021/06/14 09:23:51;0.00;0.00;0.62;0.00;0.00;0.62;;;;;25.00;51.50;;;;;;2246843;61;3892;-71
2021/06/14 09:26:31;0.00;0.00;0.62;0.00;0.00;0.62;;;;;25.30;51.00;;;;;;2247531;61;2409;-67
2021/06/14 09:29:00;0.00;0.00;0.62;0.00;0.00;0.62;;;;;25.50;50.90;;;;;;2247350;61;2384;-67
2021/06/14 09:31:29;0.00;0.00;0.62;0.00;0.00;0.62;;;;;25.60;50.10;;;;;;2241258;61;3649;-63
2021/06/14 09:33:55;0.00;0.00;0.62;0.00;0.00;0.62;;;;;25.70;50.40;;;;;;2247090;61;2192;-67
2021/06/14 09:36:21;0.00;0.00;0.62;0.00;0.00;0.62;;;;;25.80;49.90;;;;;;2244969;61;3924;-67
2021/06/14 09:38:46;0.00;0.00;0.62;0.00;0.00;0.62;;;;;25.90;49.00;;;;;;2244015;61;3895;-67
2021/06/14 09:41:17;0.00;0.00;0.62;0.00;0.00;0.62;;;;;26.00;49.30;;;;;;2245937;61;6232;-66
2021/06/14 09:43:46;0.00;0.00;0.62;0.00;0.00;0.62;;;;;26.10;49.50;;;;;;2243763;61;6030;-66
2021/06/14 09:46:28;0.00;0.00;0.62;0.00;0.00;0.62;;;;;26.10;49.40;;;;;;2242640;61;5959;-67
2021/06/14 09:48:54;0.00;0.00;0.62;0.00;0.00;0.62;;;;;26.10;48.80;;;;;;2242893;61;4071;-66
2021/06/14 09:51:20;0.00;0.00;0.62;0.00;0.00;0.62;;;;;26.10;48.50;;;;;;2242556;61;3733;-67
2021/06/14 09:53:51;0.00;0.00;0.62;0.00;0.00;0.62;;;;;26.20;48.90;;;;;;2242753;61;5689;-67
2021/06/14 09:56:21;51805.00;0.17;90.31;0.00;0.00;0.62;;;;;26.30;49.20;;;;;;2243033;61;4687;-78
2021/06/14 09:58:48;66136.00;0.22;115.08;0.00;0.00;0.62;;;;;26.30;48.90;;;;;;2242872;61;3350;-73
2021/06/14 10:01:24;218713.00;0.73;378.13;0.00;0.00;0.62;;;;;25.40;49.90;;;;;;2241283;61;2579;-74
2021/06/14 10:03:50;138252.00;0.46;239.56;0.00;0.00;0.62;;;;;24.80;51.60;;;;;;2247524;61;3023;-73
2021/06/14 10:06:36;0.00;0.00;0.62;0.00;0.00;0.62;;;;;24.40;52.20;;;;;;2249226;61;1694;-73
2021/06/14 10:09:13;0.00;0.00;0.62;0.00;0.00;0.62;;;;;24.10;53.10;;;;;;2247379;61;2403;-72
2021/06/14 10:11:40;0.00;0.00;0.62;0.00;0.00;0.62;;;;;24.00;53.30;;;;;;2247785;61;3447;-73
2021/06/14 10:14:16;0.00;0.00;0.62;0.00;0.00;0.62;;;;;24.00;53.60;;;;;;2247321;61;3338;-73
2021/06/14 10:16:42;78107.00;0.26;135.77;0.00;0.00;0.62;;;;;24.00;53.60;;;;;;2244743;61;2348;-72
2021/06/14 10:19:10;0.00;0.00;0.62;0.00;0.00;0.62;;;;;23.90;53.70;;;;;;2247265;61;2571;-73
2021/06/14 10:21:39;0.00;0.00;0.62;0.00;0.00;0.62;;;;;23.90;53.90;;;;;;2261464;48;2365;-81
2021/06/14 10:24:10;0.00;0.00;0.62;0.00;0.00;0.62;;;;;23.90;54.10;;;;;;2266918;61;973;-83
2021/06/14 10:26:38;0.00;0.00;0.62;0.00;0.00;0.62;;;;;23.90;53.80;;;;;;2266294;61;1028;-82
2021/06/14 10:29:06;0.00;0.00;0.62;0.00;0.00;0.62;;;;;23.80;54.10;;;;;;2263040;61;983;-82
2021/06/14 10:31:32;0.00;0.00;0.62;0.00;0.00;0.62;;;;;23.80;54.20;;;;;;2266586;61;931;-82